sensor_id;sensor_type;location;lat;lon;timestamp;temperature;humidity
49465;DHT22;35358;49.342;8.802;2023-04-01T00:01:05;10.10;99.90
49465;DHT22;35358;49.342;8.802;2023-04-01T00:03:31;10.20;99.90
49465;DHT22;35358;49.342;8.802;2023-04-01T00:05:58;10.20;99.90
49465;DHT22;35358;49.342;8.802;2023-04-01T00:08:28;10.20;99.90
49465;DHT22;35358;49.342;8.802;2023-04-01T00:10:56;10.20;99.90
49465;DHT22;35358;49.342;8.802;2023-04-01T00:13:23;10.20;99.90
49465;DHT22;35358;49.342;8.802;2023-04-01T00:15:49;10.20;99.90
49465;DHT22;35358;49.342;8.802;2023-04-01T00:18:15;10.20;99.90
49465;DHT22;35358;49.342;8.802;2023-04-01T00:20:45;10.10;99.90
49465;DHT22;35358;49.342;8.802;2023-04-01T00:23:14;10.10;99.90
49465;DHT22;35358;49.342;8.802;2023-04-01T00:25:40;10.10;99.90
49465;DHT22;35358;49.342;8.802;2023-04-01T00:28:09;10.10;99.90
49465;DHT22;35358;49.342;8.802;2023-04-01T00:30:36;10.10;99.90
49465;DHT22;35358;49.342;8.802;2023-04-01T00:33:03;10.00;99.90
49465;DHT22;35358;49.342;8.802;2023-04-01T00:35:28;10.10;99.90
49465;DHT22;35358;49.342;8.802;2023-04-01T00:37:57;10.00;99.90
49465;DHT22;35358;49.342;8.802;2023-04-01T00:42:51;10.00;99.90
49465;DHT22;35358;49.342;8.802;2023-04-01T00:45:38;10.00;99.90
49465;DHT22;35358;49.342;8.802;2023-04-01T00:50:40;10.00;99.90
49465;DHT22;35358;49.342;8.802;2023-04-01T00:53:08;10.00;99.90
49465;DHT22;35358;49.342;8.802;2023-04-01T00:55:35;10.00;99.90
49465;DHT22;35358;49.342;8.802;2023-04-01T00:58:05;10.00;99.90
49465;DHT22;35358;49.342;8.802;2023-04-01T01:00:33;10.00;99.90
49465;DHT22;35358;49.342;8.802;2023-04-01T01:02:59;10.00;99.90
49465;DHT22;35358;49.342;8.802;2023-04-01T01:05:42;10.00;99.90
49465;DHT22;35358;49.342;8.802;2023-04-01T01:08:20;10.00;99.90
49465;DHT22;35358;49.342;8.802;2023-04-01T01:10:50;10.10;99.90
49465;DHT22;35358;49.342;8.802;2023-04-01T01:14:06;10.00;99.90
49465;DHT22;35358;49.342;8.802;2023-04-01T01:16:38;10.00;99.90
49465;DHT22;35358;49.342;8.802;2023-04-01T01:30:36;10.00;99.90
49465;DHT22;35358;49.342;8.802;2023-04-01T01:35:48;10.00;99.90
49465;DHT22;35358;49.342;8.802;2023-04-01T01:38:18;10.00;99.90
49465;DHT22;35358;49.342;8.802;2023-04-01T01:40:49;10.00;99.90
49465;DHT22;35358;49.342;8.802;2023-04-01T01:43:21;9.90;99.90
49465;DHT22;35358;49.342;8.802;2023-04-01T01:45:52;10.00;99.90
49465;DHT22;35358;49.342;8.802;2023-04-01T01:48:23;10.00;99.90
49465;DHT22;35358;49.342;8.802;2023-04-01T01:50:50;10.00;99.90
49465;DHT22;35358;49.342;8.802;2023-04-01T01:53:16;10.00;99.90
49465;DHT22;35358;49.342;8.802;2023-04-01T01:55:44;10.00;99.90
49465;DHT22;35358;49.342;8.802;2023-04-01T01:58:50;10.00;99.90
49465;DHT22;35358;49.342;8.802;2023-04-01T02:01:35;10.00;99.90
49465;DHT22;35358;49.342;8.802;2023-04-01T02:04:04;10.00;99.90
49465;DHT22;35358;49.342;8.802;2023-04-01T02:06:32;10.00;99.90
49465;DHT22;35358;49.342;8.802;2023-04-01T02:09:07;10.00;99.90
49465;DHT22;35358;49.342;8.802;2023-04-01T02:11:49;10.00;99.90
49465;DHT22;35358;49.342;8.802;2023-04-01T02:14:54;10.00;99.90
49465;DHT22;35358;49.342;8.802;2023-04-01T02:17:25;10.00;99.90
49465;DHT22;35358;49.342;8.802;2023-04-01T02:20:01;10.00;99.90
49465;DHT22;35358;49.342;8.802;2023-04-01T02:22:33;10.00;99.90
49465;DHT22;35358;49.342;8.802;2023-04-01T02:25:08;10.10;99.90
49465;DHT22;35358;49.342;8.802;2023-04-01T02:27:34;10.10;99.90
49465;DHT22;35358;49.342;8.802;2023-04-01T02:29:59;10.10;99.90
49465;DHT22;35358;49.342;8.802;2023-04-01T02:32:29;10.10;99.90
49465;DHT22;35358;49.342;8.802;2023-04-01T02:34:57;10.10;99.90
49465;DHT22;35358;49.342;8.802;2023-04-01T02:37:24;10.10;99.90
49465;DHT22;35358;49.342;8.802;2023-04-01T02:39:50;10.10;99.90
49465;DHT22;35358;49.342;8.802;2023-04-01T02:42:17;10.10;99.90
49465;DHT22;35358;49.342;8.802;2023-04-01T02:44:45;10.10;99.90
49465;DHT22;35358;49.342;8.802;2023-04-01T02:47:11;10.10;99.90
49465;DHT22;35358;49.342;8.802;2023-04-01T02:49:36;10.10;99.90
49465;DHT22;35358;49.342;8.802;2023-04-01T02:52:02;10.10;99.90
49465;DHT22;35358;49.342;8.802;2023-04-01T02:54:28;10.10;99.90
49465;DHT22;35358;49.342;8.802;2023-04-01T02:56:53;10.10;99.90
49465;DHT22;35358;49.342;8.802;2023-04-01T02:59:21;10.00;99.90
49465;DHT22;35358;49.342;8.802;2023-04-01T03:01:47;10.00;99.90
49465;DHT22;35358;49.342;8.802;2023-04-01T03:04:15;10.00;99.90
49465;DHT22;35358;49.342;8.802;2023-04-01T03:06:40;10.00;99.90
49465;DHT22;35358;49.342;8.802;2023-04-01T03:09:06;9.90;99.90
49465;DHT22;35358;49.342;8.802;2023-04-01T03:11:31;9.90;99.90
49465;DHT22;35358;49.342;8.802;2023-04-01T03:13:57;9.90;99.90
49465;DHT22;35358;49.342;8.802;2023-04-01T03:16:25;9.80;99.90
49465;DHT22;35358;49.342;8.802;2023-04-01T03:18:52;9.80;99.90
49465;DHT22;35358;49.342;8.802;2023-04-01T03:21:23;9.80;99.90
49465;DHT22;35358;49.342;8.802;2023-04-01T03:23:50;9.70;99.90
49465;DHT22;35358;49.342;8.802;2023-04-01T03:26:16;9.70;99.90
49465;DHT22;35358;49.342;8.802;2023-04-01T03:28:42;9.70;99.90
49465;DHT22;35358;49.342;8.802;2023-04-01T03:31:10;9.70;99.90
49465;DHT22;35358;49.342;8.802;2023-04-01T03:33:38;9.70;99.90
49465;DHT22;35358;49.342;8.802;2023-04-01T03:36:04;9.70;99.90
49465;DHT22;35358;49.342;8.802;2023-04-01T03:38:33;9.70;99.90
49465;DHT22;35358;49.342;8.802;2023-04-01T03:40:59;9.70;99.90
49465;DHT22;35358;49.342;8.802;2023-04-01T03:43:25;9.70;99.90
49465;DHT22;35358;49.342;8.802;2023-04-01T03:45:51;9.70;99.90
49465;DHT22;35358;49.342;8.802;2023-04-01T03:48:17;9.60;99.90
49465;DHT22;35358;49.342;8.802;2023-04-01T03:50:44;9.60;99.90
49465;DHT22;35358;49.342;8.802;2023-04-01T03:53:12;9.60;99.90
49465;DHT22;35358;49.342;8.802;2023-04-01T03:55:41;9.60;99.90
49465;DHT22;35358;49.342;8.802;2023-04-01T03:58:07;9.60;99.90
49465;DHT22;35358;49.342;8.802;2023-04-01T04:00:33;9.60;99.90
49465;DHT22;35358;49.342;8.802;2023-04-01T04:02:59;9.60;99.90
49465;DHT22;35358;49.342;8.802;2023-04-01T04:05:25;9.60;99.90
49465;DHT22;35358;49.342;8.802;2023-04-01T04:07:52;9.60;99.90
49465;DHT22;35358;49.342;8.802;2023-04-01T04:10:17;9.60;99.90
49465;DHT22;35358;49.342;8.802;2023-04-01T04:12:46;9.50;99.90
49465;DHT22;35358;49.342;8.802;2023-04-01T04:15:12;9.50;99.90
49465;DHT22;35358;49.342;8.802;2023-04-01T04:17:38;9.50;99.90
49465;DHT22;35358;49.342;8.802;2023-04-01T04:20:07;9.50;99.90
49465;DHT22;35358;49.342;8.802;2023-04-01T04:22:38;9.50;99.90
49465;DHT22;35358;49.342;8.802;2023-04-01T04:25:04;9.40;99.90
49465;DHT22;35358;49.342;8.802;2023-04-01T04:27:33;9.40;99.90
49465;DHT22;35358;49.342;8.802;2023-04-01T04:29:58;9.40;99.90
49465;DHT22;35358;49.342;8.802;2023-04-01T04:32:24;9.40;99.90
49465;DHT22;35358;49.342;8.802;2023-04-01T04:34:52;9.40;99.90
49465;DHT22;35358;49.342;8.802;2023-04-01T04:37:19;9.30;99.90
49465;DHT22;35358;49.342;8.802;2023-04-01T04:39:45;9.30;99.90
49465;DHT22;35358;49.342;8.802;2023-04-01T04:42:13;9.30;99.90
49465;DHT22;35358;49.342;8.802;2023-04-01T04:44:39;9.30;99.90
49465;DHT22;35358;49.342;8.802;2023-04-01T04:47:04;9.30;99.90
49465;DHT22;35358;49.342;8.802;2023-04-01T04:49:31;9.30;99.90
49465;DHT22;35358;49.342;8.802;2023-04-01T04:51:59;9.30;99.90
49465;DHT22;35358;49.342;8.802;2023-04-01T04:54:27;9.30;99.90
49465;DHT22;35358;49.342;8.802;2023-04-01T04:56:55;9.30;99.90
49465;DHT22;35358;49.342;8.802;2023-04-01T04:59:25;9.30;99.90
49465;DHT22;35358;49.342;8.802;2023-04-01T05:01:51;9.30;99.90
49465;DHT22;35358;49.342;8.802;2023-04-01T05:04:19;9.30;99.90
49465;DHT22;35358;49.342;8.802;2023-04-01T05:06:44;9.30;99.90
49465;DHT22;35358;49.342;8.802;2023-04-01T05:09:12;9.30;99.90
49465;DHT22;35358;49.342;8.802;2023-04-01T05:11:38;9.30;99.90
49465;DHT22;35358;49.342;8.802;2023-04-01T05:14:06;9.40;99.90
49465;DHT22;35358;49.342;8.802;2023-04-01T05:16:33;9.40;99.90
49465;DHT22;35358;49.342;8.802;2023-04-01T05:18:59;9.50;99.90
49465;DHT22;35358;49.342;8.802;2023-04-01T05:21:25;9.60;99.90
49465;DHT22;35358;49.342;8.802;2023-04-01T05:23:50;9.60;99.90
49465;DHT22;35358;49.342;8.802;2023-04-01T05:26:16;9.60;99.90
49465;DHT22;35358;49.342;8.802;2023-04-01T05:28:42;9.70;99.90
49465;DHT22;35358;49.342;8.802;2023-04-01T05:31:08;9.70;99.90
49465;DHT22;35358;49.342;8.802;2023-04-01T05:33:36;9.70;99.90
49465;DHT22;35358;49.342;8.802;2023-04-01T05:36:14;9.70;99.90
49465;DHT22;35358;49.342;8.802;2023-04-01T05:38:40;9.80;99.90
49465;DHT22;35358;49.342;8.802;2023-04-01T05:41:07;9.80;99.90
49465;DHT22;35358;49.342;8.802;2023-04-01T05:43:36;9.80;99.90
49465;DHT22;35358;49.342;8.802;2023-04-01T05:46:04;9.80;99.90
49465;DHT22;35358;49.342;8.802;2023-04-01T05:48:32;9.80;99.90
49465;DHT22;35358;49.342;8.802;2023-04-01T05:50:57;9.80;99.90
49465;DHT22;35358;49.342;8.802;2023-04-01T05:53:27;9.80;99.90
49465;DHT22;35358;49.342;8.802;2023-04-01T05:55:53;9.80;99.90
49465;DHT22;35358;49.342;8.802;2023-04-01T05:58:21;9.80;99.90
49465;DHT22;35358;49.342;8.802;2023-04-01T06:00:46;9.80;99.90
49465;DHT22;35358;49.342;8.802;2023-04-01T06:03:12;9.80;99.90
49465;DHT22;35358;49.342;8.802;2023-04-01T06:05:42;9.90;99.90
49465;DHT22;35358;49.342;8.802;2023-04-01T06:08:14;9.90;99.90
49465;DHT22;35358;49.342;8.802;2023-04-01T06:11:04;9.90;99.90
49465;DHT22;35358;49.342;8.802;2023-04-01T06:16:49;9.90;99.90
49465;DHT22;35358;49.342;8.802;2023-04-01T06:19:28;9.90;99.90
49465;DHT22;35358;49.342;8.802;2023-04-01T06:22:19;9.80;99.90
49465;DHT22;35358;49.342;8.802;2023-04-01T06:27:20;9.80;99.90
49465;DHT22;35358;49.342;8.802;2023-04-01T06:30:02;9.90;99.90
49465;DHT22;35358;49.342;8.802;2023-04-01T06:33:07;9.90;99.90
49465;DHT22;35358;49.342;8.802;2023-04-01T06:38:41;9.80;99.90
49465;DHT22;35358;49.342;8.802;2023-04-01T06:44:44;9.70;99.90
49465;DHT22;35358;49.342;8.802;2023-04-01T06:47:34;9.70;99.90
49465;DHT22;35358;49.342;8.802;2023-04-01T06:53:00;9.60;99.90
49465;DHT22;35358;49.342;8.802;2023-04-01T06:58:05;9.50;99.90
49465;DHT22;35358;49.342;8.802;2023-04-01T07:00:40;9.40;99.90
49465;DHT22;35358;49.342;8.802;2023-04-01T07:03:23;9.40;99.90
49465;DHT22;35358;49.342;8.802;2023-04-01T07:05:53;9.40;99.90
49465;DHT22;35358;49.342;8.802;2023-04-01T07:08:25;9.40;99.90
49465;DHT22;35358;49.342;8.802;2023-04-01T07:11:05;9.40;99.90
49465;DHT22;35358;49.342;8.802;2023-04-01T07:19:50;9.40;99.90
49465;DHT22;35358;49.342;8.802;2023-04-01T07:25:12;9.40;99.90
49465;DHT22;35358;49.342;8.802;2023-04-01T07:27:38;9.40;99.90
49465;DHT22;35358;49.342;8.802;2023-04-01T07:30:15;9.40;99.90
49465;DHT22;35358;49.342;8.802;2023-04-01T07:32:56;9.30;99.90
49465;DHT22;35358;49.342;8.802;2023-04-01T07:35:52;9.30;99.90
49465;DHT22;35358;49.342;8.802;2023-04-01T07:38:35;9.40;99.90
49465;DHT22;35358;49.342;8.802;2023-04-01T07:46:22;9.40;99.90
49465;DHT22;35358;49.342;8.802;2023-04-01T07:57:21;9.40;99.90
49465;DHT22;35358;49.342;8.802;2023-04-01T08:06:16;9.50;99.90
49465;DHT22;35358;49.342;8.802;2023-04-01T08:08:19;9.50;99.90
49465;DHT22;35358;49.342;8.802;2023-04-01T08:16:23;9.50;99.90
49465;DHT22;35358;49.342;8.802;2023-04-01T08:21:37;9.50;99.90
49465;DHT22;35358;49.342;8.802;2023-04-01T08:27:00;9.40;99.90
49465;DHT22;35358;49.342;8.802;2023-04-01T08:30:14;9.50;99.90
49465;DHT22;35358;49.342;8.802;2023-04-01T08:36:01;9.40;99.90
49465;DHT22;35358;49.342;8.802;2023-04-01T08:38:32;9.50;99.90
49465;DHT22;35358;49.342;8.802;2023-04-01T09:00:31;9.60;99.90
49465;DHT22;35358;49.342;8.802;2023-04-01T09:11:44;9.30;99.90
49465;DHT22;35358;49.342;8.802;2023-04-01T09:17:24;9.30;99.90
49465;DHT22;35358;49.342;8.802;2023-04-01T09:23:28;9.30;99.90
49465;DHT22;35358;49.342;8.802;2023-04-01T09:31:54;10.20;99.90
49465;DHT22;35358;49.342;8.802;2023-04-01T09:37:24;10.60;99.90
49465;DHT22;35358;49.342;8.802;2023-04-01T09:40:17;10.60;99.90
49465;DHT22;35358;49.342;8.802;2023-04-01T09:42:53;10.70;99.90
49465;DHT22;35358;49.342;8.802;2023-04-01T09:45:46;10.80;99.90
49465;DHT22;35358;49.342;8.802;2023-04-01T09:50:53;10.20;99.90
49465;DHT22;35358;49.342;8.802;2023-04-01T09:56:35;9.90;99.90
49465;DHT22;35358;49.342;8.802;2023-04-01T09:59:12;9.80;99.90
49465;DHT22;35358;49.342;8.802;2023-04-01T10:07:11;9.80;99.90
49465;DHT22;35358;49.342;8.802;2023-04-01T10:20:54;9.90;99.90
49465;DHT22;35358;49.342;8.802;2023-04-01T10:37:52;10.00;99.90
49465;DHT22;35358;49.342;8.802;2023-04-01T10:54:01;10.10;99.90
49465;DHT22;35358;49.342;8.802;2023-04-01T10:56:55;10.10;99.90
49465;DHT22;35358;49.342;8.802;2023-04-01T11:17:09;10.20;99.90
49465;DHT22;35358;49.342;8.802;2023-04-01T11:22:33;10.30;99.90
49465;DHT22;35358;49.342;8.802;2023-04-01T11:36:41;10.30;99.90
49465;DHT22;35358;49.342;8.802;2023-04-01T11:39:51;10.30;99.90
49465;DHT22;35358;49.342;8.802;2023-04-01T11:48:24;10.30;99.90
49465;DHT22;35358;49.342;8.802;2023-04-01T11:51:09;10.30;99.90
49465;DHT22;35358;49.342;8.802;2023-04-01T13:16:42;10.30;99.90
49465;DHT22;35358;49.342;8.802;2023-04-01T13:19:12;10.30;99.90
49465;DHT22;35358;49.342;8.802;2023-04-01T13:21:48;10.30;99.90
49465;DHT22;35358;49.342;8.802;2023-04-01T13:27:27;10.30;99.90
49465;DHT22;35358;49.342;8.802;2023-04-01T13:32:41;10.30;99.90
49465;DHT22;35358;49.342;8.802;2023-04-01T13:46:12;10.40;99.90
49465;DHT22;35358;49.342;8.802;2023-04-01T13:54:31;10.40;99.90
49465;DHT22;35358;49.342;8.802;2023-04-01T14:17:23;10.60;99.90
49465;DHT22;35358;49.342;8.802;2023-04-01T14:20:16;10.60;99.90
49465;DHT22;35358;49.342;8.802;2023-04-01T14:25:45;10.60;99.90
49465;DHT22;35358;49.342;8.802;2023-04-01T14:39:00;10.70;99.90
49465;DHT22;35358;49.342;8.802;2023-04-01T14:46:53;10.60;99.90
49465;DHT22;35358;49.342;8.802;2023-04-01T14:52:43;10.60;99.90
49465;DHT22;35358;49.342;8.802;2023-04-01T14:58:12;10.60;99.90
49465;DHT22;35358;49.342;8.802;2023-04-01T15:03:33;10.70;99.90
49465;DHT22;35358;49.342;8.802;2023-04-01T15:11:25;10.60;99.90
49465;DHT22;35358;49.342;8.802;2023-04-01T15:17:01;10.50;99.90
49465;DHT22;35358;49.342;8.802;2023-04-01T15:19:51;10.40;99.90
49465;DHT22;35358;49.342;8.802;2023-04-01T15:22:30;10.30;99.90
49465;DHT22;35358;49.342;8.802;2023-04-01T15:30:37;10.30;99.90
49465;DHT22;35358;49.342;8.802;2023-04-01T15:38:31;10.30;99.90
49465;DHT22;35358;49.342;8.802;2023-04-01T15:43:48;10.30;99.90
49465;DHT22;35358;49.342;8.802;2023-04-01T15:53:01;10.30;99.90
49465;DHT22;35358;49.342;8.802;2023-04-01T15:55:16;10.30;99.90
49465;DHT22;35358;49.342;8.802;2023-04-01T16:00:29;10.40;99.90
49465;DHT22;35358;49.342;8.802;2023-04-01T16:22:22;10.50;99.90
49465;DHT22;35358;49.342;8.802;2023-04-01T16:25:31;10.60;99.90
49465;DHT22;35358;49.342;8.802;2023-04-01T16:28:28;10.60;99.90
49465;DHT22;35358;49.342;8.802;2023-04-01T16:33:56;10.60;99.90
49465;DHT22;35358;49.342;8.802;2023-04-01T16:36:36;10.60;99.90
49465;DHT22;35358;49.342;8.802;2023-04-01T16:39:33;10.60;99.90
49465;DHT22;35358;49.342;8.802;2023-04-01T16:47:40;10.50;99.90
49465;DHT22;35358;49.342;8.802;2023-04-01T16:50:13;10.50;99.90
49465;DHT22;35358;49.342;8.802;2023-04-01T16:55:50;10.50;99.90
49465;DHT22;35358;49.342;8.802;2023-04-01T17:01:27;10.50;99.90
49465;DHT22;35358;49.342;8.802;2023-04-01T17:04:00;10.50;99.90
49465;DHT22;35358;49.342;8.802;2023-04-01T17:06:55;10.50;99.90
49465;DHT22;35358;49.342;8.802;2023-04-01T17:12:28;10.60;99.90
49465;DHT22;35358;49.342;8.802;2023-04-01T17:15:29;10.50;99.90
49465;DHT22;35358;49.342;8.802;2023-04-01T17:21:10;10.60;99.90
49465;DHT22;35358;49.342;8.802;2023-04-01T17:29:43;10.60;99.90
49465;DHT22;35358;49.342;8.802;2023-04-01T17:32:26;10.60;99.90
49465;DHT22;35358;49.342;8.802;2023-04-01T17:46:23;10.30;99.90
49465;DHT22;35358;49.342;8.802;2023-04-01T17:49:13;10.30;99.90
49465;DHT22;35358;49.342;8.802;2023-04-01T17:52:23;10.20;99.90
49465;DHT22;35358;49.342;8.802;2023-04-01T18:05:57;10.10;99.90
49465;DHT22;35358;49.342;8.802;2023-04-01T18:11:12;10.10;99.90
49465;DHT22;35358;49.342;8.802;2023-04-01T18:19:22;10.00;99.90
49465;DHT22;35358;49.342;8.802;2023-04-01T18:22:41;9.90;99.90
49465;DHT22;35358;49.342;8.802;2023-04-01T18:29:45;9.90;99.90
49465;DHT22;35358;49.342;8.802;2023-04-01T18:32:32;9.80;99.90
49465;DHT22;35358;49.342;8.802;2023-04-01T18:38:11;9.70;99.90
49465;DHT22;35358;49.342;8.802;2023-04-01T18:40:39;9.70;99.90
49465;DHT22;35358;49.342;8.802;2023-04-01T18:43:34;9.80;99.90
49465;DHT22;35358;49.342;8.802;2023-04-01T18:46:31;9.80;99.90
49465;DHT22;35358;49.342;8.802;2023-04-01T18:51:57;9.70;99.90
49465;DHT22;35358;49.342;8.802;2023-04-01T18:54:27;9.60;99.90
49465;DHT22;35358;49.342;8.802;2023-04-01T18:57:14;9.60;99.90
49465;DHT22;35358;49.342;8.802;2023-04-01T19:00:02;9.60;99.90
49465;DHT22;35358;49.342;8.802;2023-04-01T19:02:44;9.60;99.90
49465;DHT22;35358;49.342;8.802;2023-04-01T19:05:36;9.50;99.90
49465;DHT22;35358;49.342;8.802;2023-04-01T19:08:32;9.50;99.90
49465;DHT22;35358;49.342;8.802;2023-04-01T19:11:17;9.50;99.90
49465;DHT22;35358;49.342;8.802;2023-04-01T19:19:11;9.50;99.90
49465;DHT22;35358;49.342;8.802;2023-04-01T19:22:27;9.40;99.90
49465;DHT22;35358;49.342;8.802;2023-04-01T19:27:57;9.50;99.90
49465;DHT22;35358;49.342;8.802;2023-04-01T19:35:47;9.40;99.90
49465;DHT22;35358;49.342;8.802;2023-04-01T19:41:24;9.40;99.90
49465;DHT22;35358;49.342;8.802;2023-04-01T19:46:53;9.40;99.90
49465;DHT22;35358;49.342;8.802;2023-04-01T19:57:30;9.50;99.90
49465;DHT22;35358;49.342;8.802;2023-04-01T20:00:22;9.50;99.90
49465;DHT22;35358;49.342;8.802;2023-04-01T20:10:48;9.40;99.90
49465;DHT22;35358;49.342;8.802;2023-04-01T20:19:14;9.30;99.90
49465;DHT22;35358;49.342;8.802;2023-04-01T20:21:47;9.40;99.90
49465;DHT22;35358;49.342;8.802;2023-04-01T20:27:04;9.40;99.90
49465;DHT22;35358;49.342;8.802;2023-04-01T20:40:45;9.40;99.90
49465;DHT22;35358;49.342;8.802;2023-04-01T20:51:15;9.20;99.90
49465;DHT22;35358;49.342;8.802;2023-04-01T21:04:07;9.20;99.90
49465;DHT22;35358;49.342;8.802;2023-04-01T21:07:00;9.10;99.90
49465;DHT22;35358;49.342;8.802;2023-04-01T21:09:52;9.10;99.90
49465;DHT22;35358;49.342;8.802;2023-04-01T21:13:00;9.10;99.90
49465;DHT22;35358;49.342;8.802;2023-04-01T21:35:06;9.00;99.90
49465;DHT22;35358;49.342;8.802;2023-04-01T21:54:25;9.10;99.90
49465;DHT22;35358;49.342;8.802;2023-04-01T22:14:31;9.10;99.90
49465;DHT22;35358;49.342;8.802;2023-04-01T22:17:00;9.10;99.90
49465;DHT22;35358;49.342;8.802;2023-04-01T22:19:47;9.10;99.90
49465;DHT22;35358;49.342;8.802;2023-04-01T22:27:45;9.10;99.90
49465;DHT22;35358;49.342;8.802;2023-04-01T22:30:28;9.00;99.90
49465;DHT22;35358;49.342;8.802;2023-04-01T22:45:00;9.00;99.90
49465;DHT22;35358;49.342;8.802;2023-04-01T22:50:19;9.10;99.90
49465;DHT22;35358;49.342;8.802;2023-04-01T22:52:59;9.00;99.90
49465;DHT22;35358;49.342;8.802;2023-04-01T22:55:32;9.10;99.90
49465;DHT22;35358;49.342;8.802;2023-04-01T22:58:47;9.10;99.90
49465;DHT22;35358;49.342;8.802;2023-04-01T23:00:58;9.10;99.90
49465;DHT22;35358;49.342;8.802;2023-04-01T23:03:31;9.00;99.90
49465;DHT22;35358;49.342;8.802;2023-04-01T23:06:11;9.00;99.90
49465;DHT22;35358;49.342;8.802;2023-04-01T23:08:57;8.90;99.90
49465;DHT22;35358;49.342;8.802;2023-04-01T23:22:33;8.90;99.90
49465;DHT22;35358;49.342;8.802;2023-04-01T23:25:27;8.80;99.90
49465;DHT22;35358;49.342;8.802;2023-04-01T23:38:17;8.90;99.90
49465;DHT22;35358;49.342;8.802;2023-04-01T23:40:43;8.80;99.90
49465;DHT22;35358;49.342;8.802;2023-04-01T23:43:26;8.90;99.90
49465;DHT22;35358;49.342;8.802;2023-04-01T23:45:55;8.90;99.90
49465;DHT22;35358;49.342;8.802;2023-04-01T23:48:28;8.90;99.90
49465;DHT22;35358;49.342;8.802;2023-04-01T23:50:58;8.80;99.90
49465;DHT22;35358;49.342;8.802;2023-04-01T23:53:28;8.80;99.90
49465;DHT22;35358;49.342;8.802;2023-04-01T23:55:55;8.80;99.90
49465;DHT22;35358;49.342;8.802;2023-04-01T23:58:23;8.80;99.90
